Time;durP1;ratioP1;P1;durP2;ratioP2;P2;SDS_P1;SDS_P2;PMS_P1;PMS_P2;Temp;Humidity;BMP_temperature;BMP_pressure;BME280_temperature;BME280_humidity;BME280_pressure;Samples;Min_cycle;Max_cycle;Signal;HPM_P1;HPM_P2
2022/02/20 00:00:17;;;;;;;11.40;7.60;;;8.90;91.80;;;;;;6300311;28;20972;-66
2022/02/20 00:03:20;;;;;;;9.43;8.63;;;9.00;91.80;;;;;;6300174;28;20479;-65
2022/02/20 00:06:23;;;;;;;13.20;8.00;;;9.00;91.60;;;;;;6296045;28;20939;-66
2022/02/20 00:09:27;;;;;;;9.20;8.23;;;9.00;91.60;;;;;;6300508;28;20471;-64
2022/02/20 00:12:31;;;;;;;8.93;8.10;;;9.00;91.70;;;;;;6285061;28;20492;-65
2022/02/20 00:15:34;;;;;;;7.63;6.93;;;9.00;91.70;;;;;;6274973;28;20472;-64
2022/02/20 00:18:37;;;;;;;9.60;8.10;;;9.00;91.60;;;;;;6274878;28;20475;-64
2022/02/20 00:21:40;;;;;;;8.60;7.80;;;9.00;91.70;;;;;;6288551;28;20475;-66
2022/02/20 00:24:44;;;;;;;8.67;7.87;;;9.00;91.80;;;;;;6298052;28;20794;-65
2022/02/20 00:27:48;;;;;;;8.07;7.23;;;9.00;92.10;;;;;;6283112;28;20476;-65
2022/02/20 00:30:52;;;;;;;8.57;7.27;;;9.00;91.80;;;;;;6279528;28;20766;-65
2022/02/20 00:33:55;;;;;;;8.30;6.77;;;9.00;91.90;;;;;;6280049;28;20489;-66
2022/02/20 00:36:58;;;;;;;11.47;7.57;;;8.90;92.00;;;;;;6271849;28;20863;-65
2022/02/20 00:40:03;;;;;;;7.07;6.37;;;8.90;92.20;;;;;;6276553;28;20481;-66
2022/02/20 00:43:07;;;;;;;7.63;6.77;;;8.90;92.20;;;;;;6275910;28;21050;-65
2022/02/20 00:46:10;;;;;;;8.50;6.73;;;8.90;92.20;;;;;;6276171;28;20486;-66
2022/02/20 00:49:13;;;;;;;7.50;6.80;;;9.00;92.30;;;;;;6275307;28;20473;-66
2022/02/20 00:52:16;;;;;;;7.17;6.53;;;8.90;92.20;;;;;;6272973;28;20538;-66
2022/02/20 00:55:21;;;;;;;7.83;7.07;;;8.90;92.60;;;;;;6295606;28;20480;-66
2022/02/20 00:58:24;;;;;;;8.57;7.30;;;8.90;92.70;;;;;;6300651;28;21102;-65
2022/02/20 01:01:27;;;;;;;8.03;6.40;;;8.90;92.70;;;;;;6301311;28;20480;-64
2022/02/20 01:04:30;;;;;;;6.80;5.70;;;8.70;93.10;;;;;;6300654;28;20478;-64
2022/02/20 01:07:33;;;;;;;6.87;6.17;;;8.60;93.50;;;;;;6300578;28;20960;-64
2022/02/20 01:10:38;;;;;;;9.17;7.20;;;8.50;93.90;;;;;;6300523;28;20467;-65
2022/02/20 01:13:41;;;;;;;6.77;5.73;;;8.50;94.10;;;;;;6300642;28;20479;-66
2022/02/20 01:16:44;;;;;;;7.73;6.37;;;8.50;94.40;;;;;;6300824;28;20482;-66
2022/02/20 01:19:48;;;;;;;7.50;6.20;;;8.50;94.70;;;;;;6300513;28;21013;-66
2022/02/20 01:22:51;;;;;;;6.40;5.80;;;8.50;94.90;;;;;;6300707;28;20486;-65
2022/02/20 01:25:55;;;;;;;5.87;5.27;;;8.40;95.00;;;;;;6301354;28;20811;-66
2022/02/20 01:28:58;;;;;;;7.20;6.57;;;8.30;95.30;;;;;;6275957;28;20464;-66
2022/02/20 01:32:01;;;;;;;7.33;5.97;;;8.30;95.50;;;;;;6302616;28;20463;-66
2022/02/20 01:35:05;;;;;;;6.27;5.77;;;8.40;95.70;;;;;;6301939;28;20444;-66
2022/02/20 01:38:08;;;;;;;7.70;6.33;;;8.40;95.60;;;;;;6300525;28;20444;-65
2022/02/20 01:41:17;;;;;;;6.97;6.23;;;8.40;95.50;;;;;;6302917;28;20492;-65
2022/02/20 01:44:20;;;;;;;6.20;5.57;;;8.50;95.60;;;;;;6303707;28;20526;-66
2022/02/20 01:47:24;;;;;;;5.83;5.23;;;8.50;95.60;;;;;;6300529;28;20615;-67
2022/02/20 01:50:27;;;;;;;8.03;5.90;;;8.50;95.70;;;;;;6300211;28;20947;-65
2022/02/20 01:53:31;;;;;;;5.77;5.20;;;8.60;95.60;;;;;;6300180;28;20478;-65
2022/02/20 01:56:36;;;;;;;6.83;6.23;;;8.60;95.60;;;;;;6299074;28;20532;-64
2022/02/20 01:59:39;;;;;;;7.10;5.73;;;8.60;95.60;;;;;;6302036;28;20937;-65
2022/02/20 02:02:43;;;;;;;7.60;5.97;;;8.70;95.50;;;;;;6303472;28;20487;-65
2022/02/20 02:05:46;;;;;;;6.10;5.50;;;8.70;95.40;;;;;;6303333;28;20470;-65
2022/02/20 02:08:49;;;;;;;8.27;5.80;;;8.70;95.30;;;;;;6303519;28;20477;-65
2022/02/20 02:11:53;;;;;;;5.40;4.90;;;8.70;95.20;;;;;;6303136;28;20486;-65
2022/02/20 02:15:02;;;;;;;7.90;6.30;;;8.80;95.30;;;;;;6292785;28;20479;-63
2022/02/20 02:18:05;;;;;;;8.47;6.37;;;8.70;95.30;;;;;;6303190;28;20490;-63
2022/02/20 02:21:08;;;;;;;7.43;5.43;;;8.70;95.20;;;;;;6302765;28;20502;-63
2022/02/20 02:24:14;;;;;;;9.30;5.57;;;8.70;95.20;;;;;;6303193;28;20489;-65
2022/02/20 02:27:18;;;;;;;6.30;5.60;;;8.70;95.20;;;;;;6303271;28;20467;-63
2022/02/20 02:30:21;;;;;;;6.60;5.43;;;8.70;95.30;;;;;;6302878;28;20479;-64
2022/02/20 02:33:28;;;;;;;5.90;5.30;;;8.70;95.40;;;;;;6302619;28;20814;-64
2022/02/20 02:36:32;;;;;;;7.60;6.47;;;8.70;95.50;;;;;;6302809;28;20822;-63
2022/02/20 02:39:36;;;;;;;7.20;6.03;;;8.70;95.40;;;;;;6302565;28;20995;-66
2022/02/20 02:42:39;;;;;;;8.13;5.90;;;8.80;95.50;;;;;;6302369;28;20480;-63
2022/02/20 02:45:42;;;;;;;5.67;4.87;;;8.70;95.30;;;;;;6302433;28;20807;-65
2022/02/20 02:48:48;;;;;;;6.17;5.57;;;8.70;95.50;;;;;;6302609;28;20483;-65
2022/02/20 02:51:51;;;;;;;6.00;5.20;;;8.70;95.50;;;;;;6302623;28;20556;-65
2022/02/20 02:54:56;;;;;;;6.47;5.77;;;8.70;95.60;;;;;;6299283;28;20489;-65
2022/02/20 02:57:59;;;;;;;9.70;5.40;;;8.70;95.50;;;;;;6280161;28;20473;-65
2022/02/20 03:01:03;;;;;;;6.20;4.47;;;8.60;95.70;;;;;;6277049;28;20476;-63
2022/02/20 03:04:07;;;;;;;6.53;5.87;;;8.60;95.70;;;;;;6277436;28;20469;-66
2022/02/20 03:07:13;;;;;;;6.80;5.07;;;8.60;95.70;;;;;;6296327;28;20471;-63
2022/02/20 03:10:17;;;;;;;11.00;5.83;;;8.60;95.80;;;;;;6302709;28;20475;-64
2022/02/20 03:13:20;;;;;;;6.13;5.63;;;8.50;96.00;;;;;;6301549;28;20559;-64
2022/02/20 03:16:24;;;;;;;5.50;5.00;;;8.50;96.20;;;;;;6301718;28;20486;-64
2022/02/20 03:19:27;;;;;;;6.20;5.03;;;8.50;96.30;;;;;;6296830;28;20548;-65
2022/02/20 03:22:30;;;;;;;5.67;5.17;;;8.50;96.40;;;;;;6301862;28;20480;-64
2022/02/20 03:25:34;;;;;;;5.83;5.23;;;8.50;96.30;;;;;;6301545;28;20478;-62
2022/02/20 03:28:37;;;;;;;5.67;5.13;;;8.50;96.20;;;;;;6301316;28;20474;-62
2022/02/20 03:31:40;;;;;;;5.20;4.70;;;8.50;96.20;;;;;;6301260;28;20485;-63
2022/02/20 03:34:43;;;;;;;7.83;5.13;;;8.50;96.30;;;;;;6301280;28;20475;-65
2022/02/20 03:37:47;;;;;;;7.20;5.30;;;8.60;96.30;;;;;;6301822;28;20472;-65
2022/02/20 03:40:51;;;;;;;5.90;5.30;;;8.70;96.30;;;;;;6301131;28;20480;-65
2022/02/20 03:43:54;;;;;;;6.67;5.07;;;8.60;96.20;;;;;;6301185;28;20482;-65
2022/02/20 03:46:57;;;;;;;5.37;4.60;;;8.60;96.30;;;;;;6276190;28;20488;-63
2022/02/20 03:50:01;;;;;;;5.30;4.77;;;8.70;96.20;;;;;;6279557;28;20449;-63
2022/02/20 03:53:04;;;;;;;6.27;4.87;;;8.70;96.10;;;;;;6301235;28;20464;-63
2022/02/20 03:56:08;;;;;;;5.70;5.30;;;8.70;96.00;;;;;;6299380;28;20459;-64
2022/02/20 03:59:11;;;;;;;7.53;5.77;;;8.70;95.90;;;;;;6278504;28;20456;-64
2022/02/20 04:02:15;;;;;;;7.90;5.60;;;8.60;95.80;;;;;;6299491;28;20512;-63
2022/02/20 04:05:19;;;;;;;6.00;5.30;;;8.50;95.80;;;;;;6278803;28;20462;-63
2022/02/20 04:08:22;;;;;;;5.47;4.57;;;8.40;95.90;;;;;;6297080;28;20525;-63
2022/02/20 04:11:26;;;;;;;6.23;5.10;;;8.30;96.00;;;;;;6279899;28;20462;-63
2022/02/20 04:14:29;;;;;;;7.30;5.57;;;8.20;96.30;;;;;;6296154;28;20476;-64
2022/02/20 04:17:39;;;;;;;6.33;4.53;;;8.10;96.60;;;;;;6280450;28;20476;-64
2022/02/20 04:20:42;;;;;;;5.40;4.87;;;8.00;97.20;;;;;;6294287;28;20474;-64
2022/02/20 04:23:45;;;;;;;6.57;5.87;;;8.00;97.00;;;;;;6277474;28;20484;-64
2022/02/20 04:26:49;;;;;;;6.03;5.43;;;7.90;97.20;;;;;;6293082;28;21142;-63
2022/02/20 04:29:52;;;;;;;6.87;6.17;;;7.80;97.30;;;;;;6282724;28;20957;-63
2022/02/20 04:32:56;;;;;;;6.10;5.57;;;7.70;97.40;;;;;;6293424;28;20474;-64
2022/02/20 04:35:59;;;;;;;6.67;5.30;;;7.70;97.50;;;;;;6283756;28;20466;-65
2022/02/20 04:39:02;;;;;;;5.70;5.20;;;7.70;97.60;;;;;;6291223;28;20482;-66
2022/02/20 04:42:07;;;;;;;5.90;5.40;;;7.60;97.70;;;;;;6284309;28;20820;-65
2022/02/20 04:45:11;;;;;;;7.30;5.33;;;7.50;97.90;;;;;;6289825;28;20570;-65
2022/02/20 04:48:14;;;;;;;7.10;6.40;;;7.50;98.00;;;;;;6285451;28;20483;-66
2022/02/20 04:51:17;;;;;;;6.60;5.57;;;7.40;98.10;;;;;;6288787;28;20472;-65
2022/02/20 04:54:20;;;;;;;5.03;4.60;;;7.40;98.20;;;;;;6286366;28;20968;-65
2022/02/20 04:57:24;;;;;;;9.27;5.77;;;7.30;98.30;;;;;;6287943;28;20498;-64
2022/02/20 05:00:28;;;;;;;7.10;5.13;;;7.20;98.30;;;;;;6287206;28;20828;-65
2022/02/20 05:03:31;;;;;;;9.33;6.07;;;7.10;98.50;;;;;;6286473;28;20462;-65
2022/02/20 05:06:34;;;;;;;7.10;6.50;;;7.10;98.70;;;;;;6288094;28;20465;-63
2022/02/20 05:09:37;;;;;;;6.20;5.60;;;7.10;98.70;;;;;;6285991;28;20786;-65
2022/02/20 05:12:41;;;;;;;6.83;5.40;;;7.00;98.60;;;;;;6288088;28;20856;-64
2022/02/20 05:15:47;;;;;;;6.30;5.73;;;7.00;98.70;;;;;;6286546;28;20501;-63
2022/02/20 05:18:50;;;;;;;8.43;5.93;;;7.00;98.70;;;;;;6290010;28;20462;-62
2022/02/20 05:21:53;;;;;;;7.90;6.17;;;7.00;98.90;;;;;;6283354;28;20536;-65
2022/02/20 05:24:57;;;;;;;6.37;5.60;;;7.00;98.90;;;;;;6291597;28;20536;-64
2022/02/20 05:28:02;;;;;;;6.03;5.50;;;7.00;99.10;;;;;;6273390;28;20482;-66
2022/02/20 05:31:05;;;;;;;6.00;5.10;;;7.00;99.20;;;;;;6292049;28;20470;-65
2022/02/20 05:34:09;;;;;;;7.53;5.17;;;7.00;99.30;;;;;;6283189;28;20482;-64
2022/02/20 05:37:16;;;;;;;7.10;5.83;;;7.00;99.40;;;;;;6298408;28;20551;-63
2022/02/20 05:40:21;;;;;;;10.17;5.97;;;7.00;99.40;;;;;;6284456;28;20471;-63
2022/02/20 05:43:26;;;;;;;6.93;6.10;;;7.10;99.50;;;;;;6299307;28;20485;-62
2022/02/20 05:46:29;;;;;;;6.67;6.00;;;7.00;99.40;;;;;;6283150;28;20492;-62
2022/02/20 05:49:32;;;;;;;6.30;5.70;;;7.10;99.60;;;;;;6300528;28;20481;-65
2022/02/20 05:52:35;;;;;;;7.83;5.87;;;7.10;99.50;;;;;;6281988;28;20482;-65
2022/02/20 05:55:38;;;;;;;5.87;5.37;;;7.10;99.40;;;;;;6301274;28;20470;-66
2022/02/20 05:58:42;;;;;;;8.73;6.80;;;7.10;99.60;;;;;;6282606;28;20481;-63
2022/02/20 06:01:45;;;;;;;7.30;6.60;;;7.10;99.70;;;;;;6302295;28;20484;-63
2022/02/20 06:04:48;;;;;;;8.10;6.73;;;7.20;99.80;;;;;;6279610;28;20966;-64
2022/02/20 06:07:52;;;;;;;9.20;7.50;;;7.20;99.90;;;;;;6302523;28;20535;-63
2022/02/20 06:10:55;;;;;;;7.70;6.70;;;7.20;99.90;;;;;;6279157;28;20803;-63
2022/02/20 06:13:59;;;;;;;8.03;7.30;;;7.20;99.80;;;;;;6302880;28;20473;-66
2022/02/20 06:17:02;;;;;;;7.93;5.73;;;7.20;99.80;;;;;;6303878;28;20507;-65
2022/02/20 06:20:08;;;;;;;9.57;6.60;;;7.20;99.60;;;;;;6302984;28;20485;-65
2022/02/20 06:23:11;;;;;;;6.47;5.80;;;7.20;99.50;;;;;;6303461;28;20554;-63
2022/02/20 06:26:19;;;;;;;7.23;6.53;;;7.20;99.30;;;;;;6302948;28;20543;-62
2022/02/20 06:29:23;;;;;;;9.23;7.30;;;7.30;99.30;;;;;;6293670;28;20459;-62
2022/02/20 06:32:27;;;;;;;7.27;6.10;;;7.20;99.30;;;;;;6302502;28;20470;-62
2022/02/20 06:35:30;;;;;;;8.10;7.30;;;7.20;99.40;;;;;;6303338;28;20476;-62
2022/02/20 06:38:33;;;;;;;7.70;6.70;;;7.10;99.30;;;;;;6302817;28;20468;-63
2022/02/20 06:41:36;;;;;;;6.90;6.30;;;7.20;99.50;;;;;;6302697;28;20508;-63
2022/02/20 06:44:41;;;;;;;8.80;7.27;;;7.10;99.40;;;;;;6301411;28;20475;-63
2022/02/20 06:47:44;;;;;;;8.17;6.90;;;7.10;99.50;;;;;;6304088;28;20473;-65
2022/02/20 06:50:47;;;;;;;7.93;7.10;;;7.10;99.50;;;;;;6303223;28;20477;-62
2022/02/20 06:53:50;;;;;;;7.67;6.87;;;7.20;99.50;;;;;;6278311;28;20478;-62
2022/02/20 06:56:53;;;;;;;7.63;6.97;;;7.20;99.30;;;;;;6277633;28;20470;-62
2022/02/20 06:59:57;;;;;;;8.77;7.57;;;7.30;99.10;;;;;;6277211;28;20493;-63
2022/02/20 07:03:00;;;;;;;7.57;6.23;;;7.40;99.10;;;;;;6277691;28;20478;-64
2022/02/20 07:06:04;;;;;;;9.17;6.40;;;7.40;98.90;;;;;;6280504;28;20482;-65
2022/02/20 07:09:08;;;;;;;10.33;6.60;;;7.40;98.70;;;;;;6278158;28;20490;-65
2022/02/20 07:12:11;;;;;;;8.60;6.43;;;7.50;98.70;;;;;;6277258;28;20475;-65
2022/02/20 07:15:16;;;;;;;8.63;7.40;;;7.50;98.50;;;;;;6277518;28;20471;-64
2022/02/20 07:18:22;;;;;;;6.83;6.00;;;7.60;98.10;;;;;;6276720;28;20969;-63
2022/02/20 07:21:25;;;;;;;7.70;6.70;;;7.70;97.60;;;;;;6276929;28;20481;-63
2022/02/20 07:24:28;;;;;;;8.03;7.23;;;7.80;97.00;;;;;;6276652;28;20475;-63
2022/02/20 07:27:37;;;;;;;7.67;6.50;;;7.90;96.80;;;;;;6276836;28;20483;-63
2022/02/20 07:30:42;;;;;;;10.40;7.07;;;8.00;96.30;;;;;;6276727;28;20479;-63
2022/02/20 07:33:45;;;;;;;8.37;7.30;;;8.10;96.00;;;;;;6271653;28;20479;-63
2022/02/20 07:36:48;;;;;;;9.27;7.20;;;8.20;95.70;;;;;;6276661;28;20484;-63
2022/02/20 07:39:51;;;;;;;8.53;7.63;;;8.10;95.50;;;;;;6276323;28;20483;-63
2022/02/20 07:42:55;;;;;;;9.23;7.87;;;8.20;95.50;;;;;;6276147;28;20487;-65
2022/02/20 07:46:00;;;;;;;7.97;7.23;;;8.30;95.40;;;;;;6276171;28;20463;-68
2022/02/20 07:49:03;;;;;;;10.00;8.80;;;8.40;95.30;;;;;;6276527;28;20490;-64
2022/02/20 07:52:06;;;;;;;8.60;7.80;;;8.40;95.00;;;;;;6275814;28;20495;-64
2022/02/20 07:55:10;;;;;;;9.30;8.30;;;8.40;95.30;;;;;;6276842;28;20500;-65
2022/02/20 07:58:15;;;;;;;10.83;7.70;;;8.50;95.80;;;;;;6275782;28;20488;-61
2022/02/20 08:01:19;;;;;;;10.20;7.97;;;8.50;96.50;;;;;;6283992;28;20475;-62
2022/02/20 08:04:22;;;;;;;8.00;7.30;;;8.40;96.90;;;;;;6297606;28;20530;-61
2022/02/20 08:07:25;;;;;;;9.20;8.07;;;8.50;97.00;;;;;;6291034;28;20993;-63
2022/02/20 08:10:29;;;;;;;8.60;7.80;;;8.60;96.90;;;;;;6277712;28;20479;-62
2022/02/20 08:13:32;;;;;;;8.10;7.40;;;8.80;97.20;;;;;;6295957;28;20483;-63
2022/02/20 08:16:36;;;;;;;8.90;8.00;;;9.10;96.80;;;;;;6299662;28;20792;-62
2022/02/20 08:19:39;;;;;;;10.40;7.73;;;9.20;96.10;;;;;;6288816;28;20590;-61
2022/02/20 08:22:43;;;;;;;8.70;7.93;;;9.20;96.00;;;;;;6274775;28;20992;-63
2022/02/20 08:25:46;;;;;;;8.00;7.30;;;9.30;95.80;;;;;;6275224;28;20521;-62
2022/02/20 08:28:50;;;;;;;10.63;7.83;;;9.50;95.90;;;;;;6298537;28;20477;-65
2022/02/20 08:31:54;;;;;;;10.50;7.60;;;9.60;95.50;;;;;;6286857;28;20486;-63
2022/02/20 08:34:57;;;;;;;9.43;8.43;;;9.60;95.10;;;;;;6274865;28;20491;-65
2022/02/20 08:38:04;;;;;;;8.57;7.30;;;9.60;95.30;;;;;;6296894;28;20779;-65
2022/02/20 08:41:07;;;;;;;8.20;7.50;;;9.80;94.90;;;;;;6275893;28;20457;-65
2022/02/20 08:44:10;;;;;;;8.23;7.23;;;10.10;94.00;;;;;;6287345;28;20488;-65
2022/02/20 08:47:15;;;;;;;7.63;6.90;;;10.20;93.70;;;;;;6277181;28;20448;-66
2022/02/20 08:50:18;;;;;;;10.20;7.30;;;10.40;93.50;;;;;;6298884;28;20467;-65
2022/02/20 08:53:21;;;;;;;7.43;6.77;;;11.30;93.30;;;;;;6285638;28;20462;-65
2022/02/20 08:56:26;;;;;;;9.20;7.00;;;12.90;91.30;;;;;;6274283;28;20470;-65
2022/02/20 08:59:29;;;;;;;7.90;7.10;;;14.80;83.50;;;;;;6274775;28;20506;-65
2022/02/20 09:02:34;;;;;;;8.20;7.50;;;15.80;74.60;;;;;;6278767;28;20473;-65
2022/02/20 09:05:37;;;;;;;7.90;7.20;;;16.70;71.90;;;;;;6297178;28;20469;-66
2022/02/20 09:08:40;;;;;;;7.53;6.83;;;19.10;62.60;;;;;;6287007;28;20474;-66
2022/02/20 09:11:44;;;;;;;8.53;7.63;;;21.10;54.70;;;;;;6283164;28;20222;-66
2022/02/20 09:14:47;;;;;;;8.47;7.67;;;22.20;49.30;;;;;;6304220;28;20230;-65
2022/02/20 09:17:51;;;;;;;9.03;8.23;;;23.20;45.40;;;;;;6295802;28;20219;-66
2022/02/20 09:20:54;;;;;;;9.03;8.30;;;24.40;42.50;;;;;;6283738;28;20773;-66
2022/02/20 09:23:57;;;;;;;8.80;7.90;;;25.10;39.30;;;;;;6286616;28;20242;-65
2022/02/20 09:27:01;;;;;;;9.20;8.40;;;25.20;37.50;;;;;;6276657;28;20231;-65
2022/02/20 09:30:05;;;;;;;9.40;8.60;;;24.80;38.00;;;;;;6279198;28;20235;-67
2022/02/20 09:33:09;;;;;;;9.50;8.70;;;24.10;37.20;;;;;;6278887;28;20567;-66
2022/02/20 09:36:13;;;;;;;9.53;8.83;;;22.00;42.10;;;;;;6289359;28;20223;-66
2022/02/20 09:39:16;;;;;;;9.90;9.03;;;19.80;44.20;;;;;;6303813;28;20541;-66
2022/02/20 09:42:20;;;;;;;10.03;9.13;;;18.90;45.60;;;;;;6289229;28;20243;-66
2022/02/20 09:45:23;;;;;;;9.13;8.37;;;17.20;48.70;;;;;;6287079;28;20236;-65
2022/02/20 09:48:28;;;;;;;9.93;8.93;;;16.30;50.90;;;;;;6278477;28;20502;-66
2022/02/20 09:51:31;;;;;;;11.57;8.00;;;15.90;52.50;;;;;;6290873;28;20804;-65
2022/02/20 09:54:34;;;;;;;9.10;8.20;;;15.80;53.40;;;;;;6302695;28;20945;-66
2022/02/20 09:57:37;;;;;;;9.10;8.30;;;15.90;53.50;;;;;;6289257;28;20482;-65
2022/02/20 10:00:51;;;;;;;11.53;10.00;;;15.80;54.30;;;;;;6284568;28;20960;-66
2022/02/20 10:03:56;;;;;;;11.70;8.40;;;15.90;54.30;;;;;;6306478;28;21031;-69
2022/02/20 10:06:59;;;;;;;8.20;7.40;;;15.60;54.40;;;;;;6287076;28;20466;-66
2022/02/20 10:10:05;;;;;;;9.60;8.70;;;15.20;55.40;;;;;;6272487;28;20966;-68
2022/02/20 10:13:09;;;;;;;8.53;7.83;;;15.10;56.50;;;;;;6282878;28;20489;-67
2022/02/20 10:16:23;;;;;;;10.00;9.00;;;15.30;57.10;;;;;;6313324;28;20456;-67
2022/02/20 10:19:28;;;;;;;7.73;7.10;;;17.50;55.20;;;;;;6320658;28;21006;-68
2022/02/20 10:22:36;;;;;;;9.20;8.40;;;21.50;47.80;;;;;;6302800;28;20227;-66
2022/02/20 10:25:40;;;;;;;11.07;9.77;;;23.60;42.20;;;;;;6302772;28;20656;-66
2022/02/20 10:29:05;;;;;;;10.17;9.27;;;25.50;38.50;;;;;;6304479;28;20694;-69
2022/02/20 10:32:21;;;;;;;10.40;9.50;;;25.20;36.50;;;;;;6278048;28;20228;-66
2022/02/20 10:35:31;;;;;;;10.50;9.43;;;25.00;35.60;;;;;;6272066;28;20224;-67
2022/02/20 10:38:37;;;;;;;10.50;9.60;;;24.90;35.20;;;;;;6261507;28;20228;-66
2022/02/20 10:41:40;;;;;;;10.60;9.60;;;23.70;35.60;;;;;;6262915;28;20689;-67
2022/02/20 10:44:50;;;;;;;12.13;11.10;;;22.70;36.20;;;;;;6262274;28;20539;-66
2022/02/20 10:47:54;;;;;;;10.60;9.60;;;21.30;38.30;;;;;;6268446;28;20281;-67
2022/02/20 10:50:59;;;;;;;11.57;9.20;;;20.90;39.40;;;;;;6277672;28;20232;-66
2022/02/20 10:54:03;;;;;;;10.27;9.37;;;20.90;40.20;;;;;;6277620;28;20254;-66
2022/02/20 10:57:06;;;;;;;10.73;9.70;;;20.90;40.70;;;;;;6275973;28;20231;-67
2022/02/20 11:00:11;;;;;;;10.77;9.87;;;22.80;39.00;;;;;;6255343;28;20244;-68
2022/02/20 11:03:14;;;;;;;10.90;9.80;;;23.70;36.70;;;;;;6252339;28;20244;-68
2022/02/20 11:06:19;;;;;;;11.60;10.60;;;23.60;35.80;;;;;;6251921;28;20686;-64
2022/02/20 11:09:22;;;;;;;11.23;10.40;;;23.70;36.90;;;;;;6252575;28;20232;-64
2022/02/20 11:12:26;;;;;;;12.00;11.00;;;24.00;35.50;;;;;;6263960;28;20247;-68
2022/02/20 11:15:30;;;;;;;9.93;9.10;;;23.80;35.00;;;;;;6289081;28;20246;-66
2022/02/20 11:18:34;;;;;;;10.77;9.77;;;23.70;35.80;;;;;;6288071;28;20632;-66
2022/02/20 11:21:43;;;;;;;9.83;9.03;;;23.50;34.90;;;;;;6282545;28;20272;-65
2022/02/20 11:24:50;;;;;;;10.93;9.83;;;22.70;36.10;;;;;;6316203;28;20667;-65
2022/02/20 11:28:14;;;;;;;11.27;10.17;;;23.10;36.50;;;;;;6326823;28;20313;-68
2022/02/20 11:31:19;;;;;;;11.13;10.17;;;25.10;34.60;;;;;;6325576;28;20232;-64
2022/02/20 11:34:23;;;;;;;10.70;9.73;;;27.50;31.90;;;;;;6326471;28;20568;-64
2022/02/20 11:37:47;;;;;;;10.17;9.30;;;28.10;29.60;;;;;;6325860;28;20681;-64
2022/02/20 11:40:52;;;;;;;10.40;9.60;;;27.60;29.80;;;;;;6326115;28;20242;-64
2022/02/20 11:43:57;;;;;;;9.67;8.97;;;27.00;30.00;;;;;;6326134;28;20681;-65
2022/02/20 11:47:00;;;;;;;11.67;10.47;;;27.00;29.90;;;;;;6326483;28;20314;-64
2022/02/20 11:50:33;;;;;;;9.97;9.07;;;26.00;30.60;;;;;;6301030;28;20226;-64
2022/02/20 11:53:37;;;;;;;9.40;8.40;;;24.60;32.50;;;;;;6300616;28;20532;-65
2022/02/20 11:56:40;;;;;;;10.77;9.67;;;24.40;33.10;;;;;;6300576;28;20222;-64
2022/02/20 12:00:14;;;;;;;10.20;9.20;;;24.40;33.00;;;;;;6300577;28;20230;-65
2022/02/20 12:03:20;;;;;;;8.93;8.23;;;22.90;34.50;;;;;;6300358;28;20237;-66
2022/02/20 12:06:25;;;;;;;10.20;9.33;;;22.30;35.30;;;;;;6300413;28;20259;-65
2022/02/20 12:09:29;;;;;;;10.40;9.40;;;21.30;36.90;;;;;;6300151;28;20227;-65
2022/02/20 12:12:34;;;;;;;9.87;8.70;;;20.30;38.90;;;;;;6312802;28;20246;-65
2022/02/20 12:15:39;;;;;;;11.70;9.13;;;19.30;40.40;;;;;;6310816;28;20602;-65
2022/02/20 12:18:42;;;;;;;9.13;8.20;;;18.40;42.30;;;;;;6300509;28;20239;-66
2022/02/20 12:21:57;;;;;;;9.00;8.10;;;17.60;43.60;;;;;;6301097;28;20249;-64
2022/02/20 12:25:03;;;;;;;11.13;8.40;;;17.00;45.40;;;;;;6300347;28;20289;-65
2022/02/20 12:28:11;;;;;;;9.03;8.10;;;16.60;46.50;;;;;;6299974;28;20976;-65
2022/02/20 12:31:30;;;;;;;9.37;8.27;;;16.10;47.90;;;;;;6300101;28;20466;-63
2022/02/20 12:34:58;;;;;;;9.30;7.27;;;16.10;48.30;;;;;;6300525;28;20472;-65
2022/02/20 12:38:01;;;;;;;8.43;7.63;;;16.20;47.90;;;;;;6299483;28;20442;-64
2022/02/20 12:41:08;;;;;;;7.87;7.07;;;17.30;46.30;;;;;;6300327;28;20460;-64
2022/02/20 12:44:12;;;;;;;6.27;5.60;;;18.40;43.70;;;;;;6299704;28;20469;-64
2022/02/20 12:47:15;;;;;;;7.10;6.37;;;18.40;42.50;;;;;;6299541;28;20227;-64
2022/02/20 12:50:18;;;;;;;7.20;6.50;;;17.90;42.40;;;;;;6299733;28;20456;-64
2022/02/20 12:53:25;;;;;;;5.90;5.33;;;17.20;44.00;;;;;;6290808;28;20485;-64
2022/02/20 12:56:29;;;;;;;6.33;5.70;;;17.70;43.20;;;;;;6299827;28;20868;-65
2022/02/20 12:59:33;;;;;;;6.53;5.93;;;18.50;41.40;;;;;;6300101;28;20465;-64
2022/02/20 13:02:38;;;;;;;6.23;5.60;;;18.90;40.20;;;;;;6300339;28;20684;-64
2022/02/20 13:05:47;;;;;;;5.47;5.07;;;18.60;40.30;;;;;;6300720;28;20238;-64
2022/02/20 13:08:58;;;;;;;7.30;6.60;;;18.20;40.90;;;;;;6300166;28;20242;-65
2022/02/20 13:12:19;;;;;;;5.93;5.43;;;17.30;42.80;;;;;;6308513;28;20526;-65
2022/02/20 13:15:23;;;;;;;5.63;5.13;;;16.70;44.30;;;;;;6311956;28;20976;-65
2022/02/20 13:18:28;;;;;;;6.50;5.90;;;16.20;44.90;;;;;;6279505;28;20964;-64
2022/02/20 13:21:33;;;;;;;8.30;5.83;;;15.80;45.90;;;;;;6284782;28;20514;-64
2022/02/20 13:24:37;;;;;;;11.20;6.60;;;15.40;46.70;;;;;;6323158;28;20805;-62
2022/02/20 13:27:46;;;;;;;7.07;6.07;;;15.00;47.70;;;;;;6322467;28;20469;-62
2022/02/20 13:30:50;;;;;;;6.30;5.73;;;14.80;48.50;;;;;;6323127;28;21012;-61
2022/02/20 13:33:57;;;;;;;7.33;5.60;;;14.80;48.90;;;;;;6322945;28;20472;-61
2022/02/20 13:37:10;;;;;;;6.03;5.10;;;14.80;48.80;;;;;;6323997;28;20469;-67
2022/02/20 13:40:13;;;;;;;9.70;5.20;;;14.80;49.30;;;;;;6324693;28;20468;-63
2022/02/20 13:43:19;;;;;;;6.60;5.23;;;14.70;50.00;;;;;;6323918;28;20476;-63
2022/02/20 13:46:37;;;;;;;6.30;5.70;;;14.80;49.70;;;;;;6326441;28;20476;-64
2022/02/20 13:49:46;;;;;;;7.20;6.50;;;15.00;49.10;;;;;;6329800;28;20735;-63
2022/02/20 13:52:49;;;;;;;7.40;6.07;;;14.70;49.60;;;;;;6325316;28;20476;-63
2022/02/20 13:55:56;;;;;;;5.83;5.23;;;14.90;49.80;;;;;;6326147;28;20473;-63
2022/02/20 13:59:00;;;;;;;6.17;5.60;;;15.10;49.40;;;;;;6322446;28;20479;-64
2022/02/20 14:03:18;;;;;;;6.77;5.83;;;15.10;48.90;;;;;;6305006;28;20828;-64
2022/02/20 15:21:27;;;;;;;;;;;;;;;;;;;;;
2022/02/20 15:38:23;;;;;;;8.90;5.93;;;13.00;59.80;;;;;;6260395;28;20487;-62
2022/02/20 16:28:54;;;;;;;7.37;5.50;;;11.70;70.20;;;;;;5962161;28;21258;-64
2022/02/20 16:31:57;;;;;;;5.70;4.90;;;11.70;70.70;;;;;;6129798;29;20985;-63
2022/02/20 16:35:01;;;;;;;6.07;5.30;;;11.70;71.00;;;;;;6129354;29;20500;-65
2022/02/20 16:38:05;;;;;;;8.70;5.70;;;11.70;71.50;;;;;;6130243;28;20459;-65
2022/02/20 16:41:10;;;;;;;9.00;6.80;;;11.60;71.90;;;;;;6145219;28;20445;-64
2022/02/20 16:44:14;;;;;;;7.87;7.07;;;11.60;72.30;;;;;;6151979;29;20450;-65
2022/02/20 16:47:18;;;;;;;19.53;18.03;;;11.60;72.80;;;;;;6150625;28;20486;-63
2022/02/20 16:50:21;;;;;;;13.80;12.60;;;11.50;73.40;;;;;;6151953;28;20834;-63
2022/02/20 16:53:28;;;;;;;10.23;8.50;;;11.50;73.70;;;;;;6151875;28;20932;-65
2022/02/20 16:56:31;;;;;;;10.90;9.70;;;11.60;74.40;;;;;;6152094;28;20484;-66
2022/02/20 16:59:35;;;;;;;9.53;8.70;;;11.50;74.60;;;;;;6152784;28;20792;-64
2022/02/20 17:02:38;;;;;;;10.13;9.23;;;11.50;75.10;;;;;;6152377;28;20532;-63
2022/02/20 17:05:42;;;;;;;12.27;8.70;;;11.50;75.40;;;;;;6151444;29;20483;-65
2022/02/20 17:08:45;;;;;;;10.27;8.57;;;11.50;75.80;;;;;;6146988;28;20961;-65
2022/02/20 17:11:48;;;;;;;8.77;7.97;;;11.40;75.90;;;;;;6151512;28;20488;-65
2022/02/20 17:14:53;;;;;;;10.40;8.53;;;11.40;75.90;;;;;;6147293;28;20513;-62
2022/02/20 17:17:56;;;;;;;8.73;7.20;;;11.40;76.70;;;;;;6152716;28;20480;-63
2022/02/20 17:20:59;;;;;;;9.17;7.63;;;11.40;76.90;;;;;;6152529;28;20477;-63
2022/02/20 17:24:03;;;;;;;10.07;8.27;;;11.40;77.40;;;;;;6150362;29;20777;-63
2022/02/20 17:27:06;;;;;;;8.80;8.00;;;11.40;77.60;;;;;;6137752;28;20796;-63
2022/02/20 17:30:11;;;;;;;9.10;8.20;;;11.30;77.60;;;;;;6163556;28;20481;-64
2022/02/20 17:33:14;;;;;;;9.90;7.80;;;11.30;78.00;;;;;;6181551;28;20484;-64
2022/02/20 17:36:17;;;;;;;9.37;7.70;;;11.20;78.20;;;;;;6180782;28;20504;-64
2022/02/20 17:39:20;;;;;;;10.60;7.73;;;11.10;78.30;;;;;;6180783;28;20543;-62
2022/02/20 17:42:25;;;;;;;13.87;9.57;;;11.10;79.50;;;;;;6181035;28;20498;-64
2022/02/20 17:45:29;;;;;;;9.60;8.47;;;11.10;79.20;;;;;;6180971;28;20535;-63
2022/02/20 17:48:32;;;;;;;9.77;8.83;;;11.10;79.50;;;;;;6180434;28;21022;-64
2022/02/20 17:51:37;;;;;;;12.23;9.87;;;11.00;79.80;;;;;;6180353;28;20477;-64
2022/02/20 17:54:43;;;;;;;11.43;10.40;;;11.00;80.00;;;;;;6180956;28;20478;-63
2022/02/20 17:57:46;;;;;;;11.70;10.60;;;11.00;80.20;;;;;;6180111;28;20521;-64
2022/02/20 18:00:51;;;;;;;11.90;9.90;;;10.90;80.40;;;;;;6180200;28;20790;-65
2022/02/20 18:03:54;;;;;;;17.40;11.97;;;10.90;80.80;;;;;;6180638;28;20500;-64
2022/02/20 18:06:57;;;;;;;11.40;10.13;;;10.80;80.80;;;;;;6179658;28;20476;-64
2022/02/20 18:10:00;;;;;;;14.87;9.20;;;10.80;81.30;;;;;;6180206;28;20477;-65
2022/02/20 18:13:04;;;;;;;10.40;9.40;;;10.80;81.60;;;;;;6179434;28;20699;-63
2022/02/20 18:16:09;;;;;;;11.23;9.87;;;10.70;81.80;;;;;;6175406;28;20477;-63
2022/02/20 18:19:12;;;;;;;12.80;10.00;;;10.60;82.10;;;;;;6179645;28;20475;-63
2022/02/20 18:22:16;;;;;;;11.07;7.90;;;10.50;82.70;;;;;;6179806;28;20991;-63